Time;durP1;ratioP1;P1;durP2;ratioP2;P2;SDS_P1;SDS_P2;PMS_P1;PMS_P2;Temp;Humidity;BMP_temperature;BMP_pressure;BME280_temperature;BME280_humidity;BME280_pressure;Samples;Min_cycle;Max_cycle;Signal;HPM_P1;HPM_P2
2021/04/08 00:00:30;;;;;;;18.52;4.25;;;;;;;;;;5051771;28;20078;-63
2021/04/08 00:02:55;;;;;;;17.25;4.30;;;;;;;;;;5052251;28;20597;-63
2021/04/08 00:05:20;;;;;;;19.23;4.63;;;;;;;;;;5051989;28;20021;-63
2021/04/08 00:07:45;;;;;;;18.75;5.88;;;;;;;;;;5052006;28;20021;-63
2021/04/08 00:10:11;;;;;;;20.60;5.78;;;;;;;;;;5051646;28;20103;-63
2021/04/08 00:12:37;;;;;;;16.98;5.85;;;;;;;;;;5052112;28;20025;-63
2021/04/08 00:15:04;;;;;;;26.52;5.05;;;;;;;;;;5052196;28;20020;-63
2021/04/08 00:17:29;;;;;;;13.27;3.72;;;;;;;;;;5051914;28;20107;-63
2021/04/08 00:19:54;;;;;;;19.15;4.68;;;;;;;;;;5051549;28;20029;-63
2021/04/08 00:22:19;;;;;;;16.25;5.03;;;;;;;;;;5052079;28;20029;-63
2021/04/08 00:24:44;;;;;;;16.60;3.97;;;;;;;;;;5052214;28;20377;-63
2021/04/08 00:27:09;;;;;;;25.02;4.72;;;;;;;;;;5053888;28;20490;-63
2021/04/08 00:29:35;;;;;;;19.67;5.20;;;;;;;;;;5072344;28;20021;-63
2021/04/08 00:32:00;;;;;;;16.88;4.18;;;;;;;;;;5052260;28;20023;-63
2021/04/08 00:34:25;;;;;;;16.25;3.88;;;;;;;;;;5051526;28;20445;-63
2021/04/08 00:36:50;;;;;;;21.30;5.07;;;;;;;;;;5051566;28;20045;-63
2021/04/08 00:39:16;;;;;;;20.83;4.88;;;;;;;;;;5050304;28;20516;-63
2021/04/08 00:41:41;;;;;;;21.70;4.45;;;;;;;;;;5051028;28;20021;-63
2021/04/08 00:44:06;;;;;;;21.95;4.70;;;;;;;;;;5051043;28;20029;-63
2021/04/08 00:46:31;;;;;;;23.98;4.57;;;;;;;;;;5050956;28;20473;-63
2021/04/08 00:48:57;;;;;;;12.30;4.10;;;;;;;;;;5045278;28;20053;-63
2021/04/08 00:51:22;;;;;;;16.25;4.43;;;;;;;;;;5050995;28;20107;-63
2021/04/08 00:53:47;;;;;;;17.45;4.55;;;;;;;;;;5051398;28;20505;-63
2021/04/08 00:56:13;;;;;;;18.75;4.75;;;;;;;;;;5050535;28;20664;-63
2021/04/08 00:58:38;;;;;;;16.52;4.50;;;;;;;;;;5050529;28;20029;-63
2021/04/08 01:01:03;;;;;;;17.45;5.20;;;;;;;;;;5050498;28;20017;-63
2021/04/08 01:03:28;;;;;;;15.48;5.38;;;;;;;;;;5050950;28;20032;-63
2021/04/08 01:05:54;;;;;;;24.20;5.03;;;;;;;;;;5051147;28;20370;-63
2021/04/08 01:08:19;;;;;;;23.83;6.38;;;;;;;;;;5050505;28;20017;-63
2021/04/08 01:10:45;;;;;;;30.35;5.72;;;;;;;;;;5050759;28;20021;-63
2021/04/08 01:13:13;;;;;;;24.08;5.20;;;;;;;;;;5051129;28;20370;-63
2021/04/08 01:15:39;;;;;;;18.77;4.90;;;;;;;;;;5050499;28;20154;-63
2021/04/08 01:18:22;;;;;;;29.45;4.93;;;;;;;;;;5050287;28;20044;-63
2021/04/08 01:21:06;;;;;;;19.48;4.75;;;;;;;;;;5050617;28;20469;-63
2021/04/08 01:23:33;;;;;;;32.42;4.68;;;;;;;;;;5050688;28;20075;-63
2021/04/08 01:26:14;;;;;;;18.30;4.40;;;;;;;;;;5039013;28;20024;-64
2021/04/08 01:28:40;;;;;;;18.40;3.92;;;;;;;;;;5040516;28;20017;-63
2021/04/08 01:31:07;;;;;;;26.08;4.70;;;;;;;;;;5049594;28;20124;-63
2021/04/08 01:33:36;;;;;;;29.92;5.72;;;;;;;;;;5050208;28;20017;-63
2021/04/08 01:36:04;;;;;;;18.63;4.75;;;;;;;;;;5050704;28;20073;-63
2021/04/08 01:38:31;;;;;;;22.67;5.03;;;;;;;;;;5049445;28;20017;-63
2021/04/08 01:40:57;;;;;;;18.85;4.57;;;;;;;;;;5050613;28;20470;-63
2021/04/08 01:45:58;;;;;;;20.25;4.53;;;;;;;;;;5901481;22;20064;-66
2021/04/08 01:48:24;;;;;;;17.10;4.32;;;;;;;;;;5029541;28;20573;-68
2021/04/08 01:50:52;;;;;;;13.88;3.63;;;;;;;;;;5029461;28;20377;-68
2021/04/08 01:53:19;;;;;;;28.50;4.60;;;;;;;;;;5029830;28;20544;-67
2021/04/08 01:55:44;;;;;;;18.85;4.15;;;;;;;;;;5030007;28;20082;-67
2021/04/08 01:58:10;;;;;;;22.38;4.35;;;;;;;;;;5028560;28;20474;-67
2021/04/08 02:00:36;;;;;;;16.42;3.83;;;;;;;;;;5045456;22;20124;-64
2021/04/08 02:03:02;;;;;;;19.38;3.65;;;;;;;;;;5030085;28;20108;-63
2021/04/08 02:05:28;;;;;;;16.15;5.90;;;;;;;;;;5030375;28;20025;-63
2021/04/08 02:07:54;;;;;;;18.95;4.10;;;;;;;;;;5030163;28;20079;-63
2021/04/08 02:10:20;;;;;;;28.10;4.85;;;;;;;;;;5029764;28;20017;-63
2021/04/08 02:12:48;;;;;;;17.00;4.00;;;;;;;;;;5029904;28;20017;-64
2021/04/08 02:15:14;;;;;;;16.73;4.95;;;;;;;;;;5029788;28;20412;-64
2021/04/08 02:17:39;;;;;;;18.35;4.05;;;;;;;;;;5029883;28;20033;-64
2021/04/08 02:20:08;;;;;;;16.50;4.53;;;;;;;;;;5029816;28;20021;-64
2021/04/08 02:22:33;;;;;;;25.33;4.72;;;;;;;;;;5029662;28;20034;-65
2021/04/08 02:24:58;;;;;;;17.15;4.10;;;;;;;;;;5030056;28;20172;-63
2021/04/08 02:27:23;;;;;;;25.67;4.55;;;;;;;;;;5030142;28;20022;-63
2021/04/08 02:29:50;;;;;;;24.75;5.32;;;;;;;;;;5029919;28;20461;-63
2021/04/08 02:32:16;;;;;;;19.27;5.47;;;;;;;;;;5029932;28;20382;-63
2021/04/08 02:34:41;;;;;;;17.10;4.60;;;;;;;;;;5029700;28;20028;-65
2021/04/08 02:37:06;;;;;;;15.70;3.78;;;;;;;;;;5030071;28;20397;-63
2021/04/08 02:39:31;;;;;;;19.80;3.90;;;;;;;;;;5029083;28;20029;-64
2021/04/08 02:41:56;;;;;;;12.65;4.18;;;;;;;;;;5029507;28;20116;-63
2021/04/08 02:44:22;;;;;;;16.35;4.47;;;;;;;;;;5029674;28;20385;-64
2021/04/08 02:46:47;;;;;;;22.10;3.70;;;;;;;;;;5029695;28;20495;-65
2021/04/08 02:49:13;;;;;;;12.77;4.22;;;;;;;;;;5013172;28;20537;-64
2021/04/08 02:51:41;;;;;;;17.20;3.97;;;;;;;;;;5029735;28;20025;-65
2021/04/08 02:54:29;;;;;;;16.48;3.40;;;;;;;;;;5029666;28;20029;-64
2021/04/08 02:56:59;;;;;;;19.35;4.50;;;;;;;;;;5025478;28;20032;-63
2021/04/08 02:59:30;;;;;;;14.65;3.58;;;;;;;;;;5029570;28;20029;-63
2021/04/08 03:02:01;;;;;;;16.73;4.43;;;;;;;;;;5030110;28;20084;-63
2021/04/08 03:04:27;;;;;;;11.57;3.40;;;;;;;;;;5033610;28;20049;-63
2021/04/08 03:06:53;;;;;;;13.45;3.08;;;;;;;;;;5033119;28;20010;-64
2021/04/08 03:09:19;;;;;;;14.85;4.38;;;;;;;;;;5033064;28;20065;-63
2021/04/08 03:11:47;;;;;;;16.17;3.58;;;;;;;;;;5033430;28;20382;-65
2021/04/08 03:14:13;;;;;;;20.60;3.30;;;;;;;;;;5023552;28;20034;-65
2021/04/08 03:16:39;;;;;;;12.27;3.85;;;;;;;;;;5032875;28;20029;-63
2021/04/08 03:19:06;;;;;;;18.67;3.45;;;;;;;;;;5032519;28;20025;-64
2021/04/08 03:21:31;;;;;;;17.25;3.25;;;;;;;;;;5032548;28;20052;-65
2021/04/08 03:23:57;;;;;;;15.88;2.97;;;;;;;;;;5032870;28;20061;-63
2021/04/08 03:26:24;;;;;;;14.27;2.95;;;;;;;;;;5032605;28;20052;-64
2021/04/08 03:28:49;;;;;;;25.33;4.40;;;;;;;;;;5032239;28;20032;-65
2021/04/08 03:31:15;;;;;;;25.17;4.80;;;;;;;;;;5032770;28;20025;-63
2021/04/08 03:33:40;;;;;;;16.25;3.20;;;;;;;;;;5033352;28;20021;-63
2021/04/08 03:36:06;;;;;;;17.98;4.00;;;;;;;;;;5032324;28;20034;-64
2021/04/08 03:38:31;;;;;;;17.23;3.20;;;;;;;;;;5032388;28;20022;-64
2021/04/08 03:40:57;;;;;;;12.85;3.50;;;;;;;;;;5032300;28;20082;-64
2021/04/08 03:43:23;;;;;;;15.88;3.28;;;;;;;;;;5024759;28;20057;-63
2021/04/08 03:45:48;;;;;;;15.75;3.08;;;;;;;;;;5015324;28;20060;-64
2021/04/08 03:48:14;;;;;;;20.60;2.47;;;;;;;;;;5032269;28;20025;-64
2021/04/08 03:50:41;;;;;;;15.13;2.58;;;;;;;;;;5031658;28;20029;-65
2021/04/08 03:53:07;;;;;;;13.90;2.40;;;;;;;;;;5031538;28;20306;-65
2021/04/08 03:55:33;;;;;;;10.38;2.35;;;;;;;;;;5031929;28;20481;-65
2021/04/08 03:57:59;;;;;;;15.80;2.50;;;;;;;;;;5031338;28;20729;-65
2021/04/08 04:00:24;;;;;;;16.70;2.78;;;;;;;;;;5044170;28;20029;-64
2021/04/08 04:02:49;;;;;;;14.70;2.33;;;;;;;;;;5053299;28;20021;-63
2021/04/08 04:05:15;;;;;;;17.65;3.47;;;;;;;;;;5033028;28;20021;-65
2021/04/08 04:07:48;;;;;;;16.70;2.50;;;;;;;;;;5031300;28;20044;-64
2021/04/08 04:10:14;;;;;;;13.20;3.20;;;;;;;;;;5028640;28;20018;-64
2021/04/08 04:12:40;;;;;;;20.67;3.78;;;;;;;;;;5031537;28;20033;-64
2021/04/08 04:15:06;;;;;;;19.25;3.88;;;;;;;;;;5031508;28;20072;-64
2021/04/08 04:17:32;;;;;;;22.25;4.80;;;;;;;;;;5031150;28;20036;-64
2021/04/08 04:19:57;;;;;;;15.15;5.00;;;;;;;;;;5031343;28;20033;-64
2021/04/08 04:22:23;;;;;;;20.90;4.50;;;;;;;;;;5042624;28;20056;-64
2021/04/08 04:24:48;;;;;;;19.75;5.95;;;;;;;;;;5033347;28;20091;-64
2021/04/08 04:27:14;;;;;;;20.02;5.90;;;;;;;;;;5031041;28;20494;-64
2021/04/08 04:29:39;;;;;;;18.50;5.97;;;;;;;;;;5036170;28;20053;-64
2021/04/08 04:32:07;;;;;;;31.27;5.70;;;;;;;;;;5032147;28;20059;-64
2021/04/08 04:34:32;;;;;;;25.33;5.57;;;;;;;;;;5031554;28;20079;-64
2021/04/08 04:36:57;;;;;;;23.48;6.55;;;;;;;;;;5031391;28;21710;-64
2021/04/08 04:39:22;;;;;;;29.88;5.38;;;;;;;;;;5030933;28;20033;-63
2021/04/08 04:41:48;;;;;;;13.75;3.67;;;;;;;;;;5031255;28;20025;-65
2021/04/08 04:44:13;;;;;;;28.00;5.13;;;;;;;;;;5031547;28;20163;-64
2021/04/08 04:46:38;;;;;;;16.95;4.82;;;;;;;;;;5028951;28;20014;-65
2021/04/08 04:49:03;;;;;;;13.77;5.10;;;;;;;;;;5031070;28;20037;-64
2021/04/08 04:51:29;;;;;;;20.80;5.57;;;;;;;;;;5031468;28;20092;-63
2021/04/08 04:53:54;;;;;;;11.68;5.03;;;;;;;;;;5031295;28;20124;-63
2021/04/08 04:56:19;;;;;;;16.40;5.22;;;;;;;;;;5031137;28;20021;-63
2021/04/08 04:58:44;;;;;;;21.73;5.55;;;;;;;;;;5030594;28;20507;-64
2021/04/08 05:01:10;;;;;;;27.70;5.85;;;;;;;;;;5030856;28;20056;-64
2021/04/08 05:03:35;;;;;;;28.48;5.60;;;;;;;;;;5031552;28;20021;-65
2021/04/08 05:06:00;;;;;;;17.33;6.90;;;;;;;;;;5025192;28;20053;-64
2021/04/08 05:08:26;;;;;;;23.95;6.70;;;;;;;;;;5030176;28;20510;-64
2021/04/08 05:10:51;;;;;;;17.17;6.07;;;;;;;;;;5030546;28;20017;-65
2021/04/08 05:13:16;;;;;;;18.52;5.78;;;;;;;;;;5030511;28;20385;-65
2021/04/08 05:15:41;;;;;;;12.82;5.10;;;;;;;;;;5030557;28;20061;-64
2021/04/08 05:18:06;;;;;;;12.20;5.45;;;;;;;;;;5028959;28;20032;-65
2021/04/08 05:20:31;;;;;;;15.10;4.93;;;;;;;;;;5027443;28;20039;-64
2021/04/08 05:22:57;;;;;;;23.63;5.97;;;;;;;;;;5028366;28;20492;-64
2021/04/08 05:25:22;;;;;;;28.83;6.40;;;;;;;;;;5027058;28;20055;-64
2021/04/08 05:27:47;;;;;;;23.20;8.05;;;;;;;;;;5027258;28;20061;-65
2021/04/08 05:30:12;;;;;;;27.23;7.78;;;;;;;;;;5027743;28;20022;-64
2021/04/08 05:32:38;;;;;;;25.23;6.40;;;;;;;;;;5028210;28;20021;-65
2021/04/08 05:35:03;;;;;;;24.48;7.32;;;;;;;;;;5030728;28;20030;-64
2021/04/08 05:37:29;;;;;;;20.58;7.00;;;;;;;;;;5028417;28;20440;-63
2021/04/08 05:39:55;;;;;;;21.95;7.32;;;;;;;;;;5029250;28;20025;-64
2021/04/08 05:42:20;;;;;;;20.83;7.18;;;;;;;;;;5029867;28;20074;-65
2021/04/08 05:44:45;;;;;;;19.27;7.70;;;;;;;;;;5030522;28;20075;-63
2021/04/08 05:47:10;;;;;;;23.85;7.97;;;;;;;;;;5029736;28;20021;-65
2021/04/08 05:49:35;;;;;;;23.75;8.65;;;;;;;;;;5029933;28;20034;-64
2021/04/08 05:52:02;;;;;;;22.83;7.80;;;;;;;;;;5030327;28;20040;-65
2021/04/08 05:54:27;;;;;;;31.52;9.35;;;;;;;;;;5029625;28;20126;-64
2021/04/08 05:56:52;;;;;;;26.92;9.68;;;;;;;;;;5029492;28;20653;-64
2021/04/08 05:59:17;;;;;;;23.02;9.40;;;;;;;;;;5029542;28;20033;-65
2021/04/08 06:01:42;;;;;;;24.50;8.95;;;;;;;;;;5029553;28;20079;-65
2021/04/08 06:04:08;;;;;;;17.83;8.32;;;;;;;;;;5030204;28;20025;-64
2021/04/08 06:06:33;;;;;;;22.38;7.68;;;;;;;;;;5030582;28;20041;-64
2021/04/08 06:08:58;;;;;;;17.00;7.93;;;;;;;;;;5029483;28;20052;-65
2021/04/08 06:11:23;;;;;;;30.92;8.80;;;;;;;;;;5030063;28;20032;-64
2021/04/08 06:13:50;;;;;;;21.48;9.05;;;;;;;;;;5029944;28;20057;-65
2021/04/08 06:16:15;;;;;;;20.92;8.32;;;;;;;;;;5029811;28;20022;-64
2021/04/08 06:18:40;;;;;;;28.65;9.43;;;;;;;;;;5029512;28;20025;-65
2021/04/08 06:21:05;;;;;;;27.40;7.95;;;;;;;;;;5027718;28;20033;-66
2021/04/08 06:23:31;;;;;;;30.98;7.68;;;;;;;;;;5027487;28;20516;-64
2021/04/08 06:25:57;;;;;;;19.70;10.02;;;;;;;;;;5027117;28;20132;-65
2021/04/08 06:28:22;;;;;;;28.20;9.85;;;;;;;;;;5027419;28;20032;-64
2021/04/08 06:30:48;;;;;;;23.90;8.70;;;;;;;;;;5027469;28;20025;-65
2021/04/08 06:33:13;;;;;;;22.60;8.35;;;;;;;;;;5029669;28;20029;-63
2021/04/08 06:35:38;;;;;;;21.38;8.90;;;;;;;;;;5029540;28;20022;-65
2021/04/08 06:38:04;;;;;;;37.85;10.35;;;;;;;;;;5032005;28;20034;-64
2021/04/08 06:40:29;;;;;;;27.80;7.80;;;;;;;;;;5033224;28;20029;-64
2021/04/08 06:42:55;;;;;;;25.17;8.60;;;;;;;;;;5033726;28;20021;-65
2021/04/08 06:45:22;;;;;;;24.45;7.63;;;;;;;;;;5033012;28;20037;-64
2021/04/08 06:47:53;;;;;;;25.23;8.35;;;;;;;;;;5032387;28;20040;-66
2021/04/08 06:50:20;;;;;;;21.38;8.48;;;;;;;;;;5032253;28;20151;-65
2021/04/08 06:52:45;;;;;;;32.78;9.63;;;;;;;;;;5031487;28;20028;-65
2021/04/08 06:55:11;;;;;;;24.05;8.02;;;;;;;;;;5033982;28;20013;-65
2021/04/08 06:57:38;;;;;;;24.92;8.52;;;;;;;;;;5016444;28;20024;-65
2021/04/08 07:00:04;;;;;;;17.88;8.90;;;;;;;;;;5033192;28;20041;-64
2021/04/08 07:02:29;;;;;;;22.90;8.50;;;;;;;;;;5032563;28;20083;-66
2021/04/08 07:04:55;;;;;;;22.80;7.78;;;;;;;;;;5032995;28;20481;-64
2021/04/08 07:07:20;;;;;;;32.67;8.93;;;;;;;;;;5034586;28;20025;-65
2021/04/08 07:09:48;;;;;;;22.95;7.15;;;;;;;;;;5032411;28;20021;-65
2021/04/08 07:12:14;;;;;;;19.08;7.10;;;;;;;;;;5031779;28;20080;-65
2021/04/08 07:14:39;;;;;;;17.88;6.75;;;;;;;;;;5032690;28;20029;-64
2021/04/08 07:17:08;;;;;;;19.25;6.70;;;;;;;;;;5036185;28;20452;-65
2021/04/08 07:19:34;;;;;;;19.77;7.25;;;;;;;;;;5035900;28;20402;-67
2021/04/08 07:22:00;;;;;;;17.33;7.18;;;;;;;;;;5033308;28;20029;-64
2021/04/08 07:24:25;;;;;;;17.52;7.60;;;;;;;;;;5032799;28;20021;-65
2021/04/08 07:26:54;;;;;;;18.52;6.80;;;;;;;;;;5033711;28;20036;-65
2021/04/08 07:29:20;;;;;;;15.57;6.15;;;;;;;;;;5044610;28;20024;-65
2021/04/08 07:31:45;;;;;;;15.85;7.07;;;;;;;;;;5033368;28;20021;-64
2021/04/08 07:34:10;;;;;;;19.63;7.40;;;;;;;;;;5032179;28;20033;-65
2021/04/08 07:36:37;;;;;;;18.02;6.53;;;;;;;;;;5033379;28;20043;-66
2021/04/08 07:39:06;;;;;;;15.85;6.05;;;;;;;;;;5032376;28;20064;-65
2021/04/08 07:41:33;;;;;;;28.00;5.95;;;;;;;;;;5031838;28;20032;-65
2021/04/08 07:43:58;;;;;;;22.73;6.20;;;;;;;;;;5031979;28;20032;-65
2021/04/08 07:46:39;;;;;;;19.10;6.05;;;;;;;;;;5028440;28;20026;-65
2021/04/08 07:49:04;;;;;;;;;;;;;;;;;;5029019;28;20614;-65
2021/04/08 07:51:34;;;;;;;18.80;6.20;;;;;;;;;;5032226;28;20272;-65
2021/04/08 07:54:19;;;;;;;23.48;5.80;;;;;;;;;;5032163;28;20029;-65
2021/04/08 07:56:45;;;;;;;18.42;6.05;;;;;;;;;;5029975;28;20032;-65
2021/04/08 07:59:29;;;;;;;14.50;5.63;;;;;;;;;;5031861;28;20022;-66
2021/04/08 08:02:00;;;;;;;5.10;3.30;;;;;;;;;;5032867;28;20115;-65
2021/04/08 08:04:26;;;;;;;19.42;5.20;;;;;;;;;;5031985;28;20021;-66
2021/04/08 08:06:52;;;;;;;14.25;5.00;;;;;;;;;;5031867;28;20025;-67
2021/04/08 08:09:35;;;;;;;13.27;5.25;;;;;;;;;;5032169;28;20029;-65
2021/04/08 08:12:11;;;;;;;11.60;4.63;;;;;;;;;;5024805;28;20347;-66
2021/04/08 08:14:38;;;;;;;29.55;6.10;;;;;;;;;;5032112;28;20025;-65
2021/04/08 08:17:06;;;;;;;16.17;5.35;;;;;;;;;;5032216;28;20048;-65
2021/04/08 08:19:32;;;;;;;14.20;5.05;;;;;;;;;;5032021;28;20032;-66
2021/04/08 08:21:57;;;;;;;21.33;4.82;;;;;;;;;;5014189;28;20398;-65
2021/04/08 08:24:23;;;;;;;15.57;5.93;;;;;;;;;;5032466;28;20104;-66
2021/04/08 08:26:49;;;;;;;14.32;3.83;;;;;;;;;;5031601;28;20075;-67
2021/04/08 08:29:18;;;;;;;11.93;4.13;;;;;;;;;;5030600;28;20477;-66
2021/04/08 08:32:12;;;;;;;10.60;4.85;;;;;;;;;;5031618;28;20445;-65
2021/04/08 08:34:38;;;;;;;9.38;4.13;;;;;;;;;;5013176;28;20481;-65
2021/04/08 08:37:10;;;;;;;15.55;3.88;;;;;;;;;;5030918;28;20088;-66
2021/04/08 08:39:43;;;;;;;12.85;3.85;;;;;;;;;;5031135;28;20041;-66
2021/04/08 08:42:09;;;;;;;13.32;3.67;;;;;;;;;;5028213;28;20026;-65
2021/04/08 08:44:35;;;;;;;11.10;4.20;;;;;;;;;;5030842;28;20021;-66
2021/04/08 08:47:00;;;;;;;10.82;4.60;;;;;;;;;;5031138;28;20021;-65
2021/04/08 08:49:34;;;;;;;12.13;4.88;;;;;;;;;;5031106;28;20013;-65
2021/04/08 08:51:59;;;;;;;18.95;5.25;;;;;;;;;;5031734;28;20020;-66
2021/04/08 08:54:25;;;;;;;12.77;5.70;;;;;;;;;;5030860;28;20398;-67
2021/04/08 08:56:50;;;;;;;12.70;3.58;;;;;;;;;;5030613;28;20029;-65
2021/04/08 08:59:16;;;;;;;9.95;4.25;;;;;;;;;;5030358;28;20486;-65
2021/04/08 09:01:41;;;;;;;14.10;3.60;;;;;;;;;;5031175;28;20048;-66
2021/04/08 09:04:07;;;;;;;10.10;3.35;;;;;;;;;;5030870;28;20041;-64
2021/04/08 09:06:33;;;;;;;10.30;2.80;;;;;;;;;;5031372;28;20029;-65
2021/04/08 09:09:03;;;;;;;4.82;2.17;;;;;;;;;;5030356;28;20021;-65
2021/04/08 09:11:32;;;;;;;6.38;2.83;;;;;;;;;;5030723;28;20497;-64
2021/04/08 09:13:58;;;;;;;7.70;3.20;;;;;;;;;;5030367;28;20064;-64
2021/04/08 09:16:23;;;;;;;13.43;3.50;;;;;;;;;;5030558;28;20359;-65
2021/04/08 09:19:09;;;;;;;12.00;3.85;;;;;;;;;;5030790;28;20032;-66
2021/04/08 09:21:50;;;;;;;8.27;3.25;;;;;;;;;;5030110;28;20104;-65
2021/04/08 09:24:29;;;;;;;9.52;3.83;;;;;;;;;;5030190;28;20109;-65
2021/04/08 09:26:56;;;;;;;9.70;3.60;;;;;;;;;;5030364;28;20021;-65
2021/04/08 09:29:42;;;;;;;10.45;3.95;;;;;;;;;;5024554;28;20063;-66
2021/04/08 09:32:26;;;;;;;8.25;3.00;;;;;;;;;;5030446;28;20026;-64
2021/04/08 09:35:07;;;;;;;15.13;4.60;;;;;;;;;;5030043;28;20025;-65
2021/04/08 09:37:45;;;;;;;10.32;3.53;;;;;;;;;;5029963;28;20018;-65
2021/04/08 09:40:22;;;;;;;4.50;2.00;;;;;;;;;;5029903;28;20025;-66
2021/04/08 09:42:56;;;;;;;7.35;2.35;;;;;;;;;;5024805;28;20036;-65
2021/04/08 09:45:21;;;;;;;9.48;3.00;;;;;;;;;;5029579;28;20088;-65
2021/04/08 09:47:46;;;;;;;12.15;4.03;;;;;;;;;;5027965;28;20100;-64
2021/04/08 09:50:41;;;;;;;16.58;4.65;;;;;;;;;;5029324;28;20093;-67
2021/04/08 09:53:06;;;;;;;14.10;3.67;;;;;;;;;;5027524;28;20025;-65
2021/04/08 09:55:32;;;;;;;9.93;3.35;;;;;;;;;;5030295;28;20360;-66
2021/04/08 09:58:01;;;;;;;10.65;5.18;;;;;;;;;;5029882;28;20033;-64
2021/04/08 10:00:26;;;;;;;10.82;3.35;;;;;;;;;;5029260;28;20079;-64
2021/04/08 10:02:56;;;;;;;18.33;3.63;;;;;;;;;;5029815;28;20392;-65
2021/04/08 10:05:21;;;;;;;7.63;3.17;;;;;;;;;;5029652;28;20271;-64
2021/04/08 10:07:54;;;;;;;9.15;2.17;;;;;;;;;;5029097;28;20029;-65
2021/04/08 10:10:20;;;;;;;7.38;3.33;;;;;;;;;;5023500;28;20097;-65
2021/04/08 10:12:45;;;;;;;8.55;3.40;;;;;;;;;;5027273;28;20029;-64
2021/04/08 10:15:14;;;;;;;10.30;3.15;;;;;;;;;;5028708;28;20033;-65
2021/04/08 10:17:39;;;;;;;13.75;4.35;;;;;;;;;;5022296;28;20082;-65
2021/04/08 10:20:06;;;;;;;13.10;3.60;;;;;;;;;;5029780;28;20021;-65
2021/04/08 10:22:38;;;;;;;6.38;3.38;;;;;;;;;;5029142;28;20370;-64
2021/04/08 10:25:03;;;;;;;12.95;4.03;;;;;;;;;;5029411;28;20018;-64
2021/04/08 10:27:29;;;;;;;13.55;4.05;;;;;;;;;;5028985;28;20036;-65
2021/04/08 10:29:54;;;;;;;11.68;3.90;;;;;;;;;;5029412;28;20033;-65
2021/04/08 10:32:28;;;;;;;9.52;3.75;;;;;;;;;;5028925;28;20028;-64
2021/04/08 10:34:54;;;;;;;13.35;4.57;;;;;;;;;;5029859;28;20104;-65
2021/04/08 10:37:19;;;;;;;6.05;3.92;;;;;;;;;;5029573;28;20152;-64
2021/04/08 10:39:44;;;;;;;9.90;3.40;;;;;;;;;;5029552;28;20518;-65
2021/04/08 10:42:10;;;;;;;9.23;4.10;;;;;;;;;;5029006;28;20022;-64
2021/04/08 10:44:39;;;;;;;7.22;4.55;;;;;;;;;;5027816;28;20025;-65
2021/04/08 10:47:08;;;;;;;8.18;3.80;;;;;;;;;;5028227;28;20026;-65
2021/04/08 10:49:55;;;;;;;8.38;4.10;;;;;;;;;;5030551;28;20104;-65
2021/04/08 10:52:24;;;;;;;9.75;3.50;;;;;;;;;;5028736;28;20026;-65
2021/04/08 10:54:51;;;;;;;14.32;3.70;;;;;;;;;;5029477;28;20529;-65
2021/04/08 10:57:16;;;;;;;9.73;3.92;;;;;;;;;;5031388;28;20018;-66
2021/04/08 10:59:42;;;;;;;9.85;3.33;;;;;;;;;;5029070;28;20043;-65
2021/04/08 11:02:21;;;;;;;26.00;5.30;;;;;;;;;;5029110;28;20040;-65
2021/04/08 11:04:47;;;;;;;20.08;4.75;;;;;;;;;;5027824;28;20021;-64
2021/04/08 11:07:12;;;;;;;8.15;2.88;;;;;;;;;;5029067;28;20040;-65
2021/04/08 11:09:37;;;;;;;8.15;3.28;;;;;;;;;;5028872;28;20029;-66
2021/04/08 11:12:15;;;;;;;17.10;4.20;;;;;;;;;;5029172;28;20021;-65
2021/04/08 11:14:43;;;;;;;7.95;4.03;;;;;;;;;;5029249;28;20034;-67
2021/04/08 11:17:09;;;;;;;13.45;4.10;;;;;;;;;;5029539;28;20022;-65
2021/04/08 11:19:35;;;;;;;10.27;4.07;;;;;;;;;;5028749;28;20014;-67
2021/04/08 11:22:01;;;;;;;9.57;4.20;;;;;;;;;;5023171;28;20036;-65
2021/04/08 11:24:26;;;;;;;13.88;4.28;;;;;;;;;;5018691;28;20025;-66
2021/04/08 11:26:52;;;;;;;13.45;4.05;;;;;;;;;;5033062;28;20060;-64
2021/04/08 11:29:18;;;;;;;14.48;3.85;;;;;;;;;;5032185;28;20138;-65
2021/04/08 11:31:44;;;;;;;12.10;3.63;;;;;;;;;;5032230;28;20028;-65
2021/04/08 11:34:09;;;;;;;14.52;4.93;;;;;;;;;;5032629;28;20025;-66
2021/04/08 11:36:34;;;;;;;13.07;3.72;;;;;;;;;;5031645;28;20017;-65
2021/04/08 11:39:09;;;;;;;11.00;4.70;;;;;;;;;;5030689;28;20422;-66
2021/04/08 11:41:35;;;;;;;8.55;3.75;;;;;;;;;;5030971;28;20309;-65
2021/04/08 11:44:00;;;;;;;12.13;4.60;;;;;;;;;;5032204;28;20029;-66
2021/04/08 11:46:26;;;;;;;13.85;4.85;;;;;;;;;;5031240;28;20424;-66
2021/04/08 11:48:52;;;;;;;10.13;4.38;;;;;;;;;;5031774;28;20068;-64
2021/04/08 11:51:22;;;;;;;9.10;3.90;;;;;;;;;;5031037;28;20425;-64
2021/04/08 11:53:47;;;;;;;14.68;4.68;;;;;;;;;;5032298;28;20025;-66
2021/04/08 11:56:22;;;;;;;7.05;4.07;;;;;;;;;;5035176;28;20413;-65
2021/04/08 11:58:48;;;;;;;11.93;5.20;;;;;;;;;;5032295;28;20025;-66
2021/04/08 12:01:14;;;;;;;10.40;4.40;;;;;;;;;;5036522;28;20106;-66
2021/04/08 12:03:41;;;;;;;17.27;5.20;;;;;;;;;;5031776;28;20036;-66
2021/04/08 12:06:12;;;;;;;12.77;4.55;;;;;;;;;;5032311;28;20096;-65
2021/04/08 12:08:42;;;;;;;10.23;5.30;;;;;;;;;;5032218;28;20033;-66
2021/04/08 12:11:08;;;;;;;14.25;4.97;;;;;;;;;;5031843;28;20165;-65
2021/04/08 12:13:33;;;;;;;12.43;4.30;;;;;;;;;;5031744;28;20461;-64
2021/04/08 12:15:58;;;;;;;11.02;4.07;;;;;;;;;;5031858;28;20051;-66
2021/04/08 12:18:25;;;;;;;12.43;5.45;;;;;;;;;;5031900;28;20029;-65
2021/04/08 12:20:52;;;;;;;6.88;3.55;;;;;;;;;;5032054;28;20080;-65
2021/04/08 12:23:19;;;;;;;13.98;4.20;;;;;;;;;;5031544;28;20028;-65
2021/04/08 12:25:51;;;;;;;9.63;4.38;;;;;;;;;;5031552;28;20029;-64
2021/04/08 12:28:17;;;;;;;15.90;5.20;;;;;;;;;;5031499;28;20018;-66
2021/04/08 12:30:47;;;;;;;9.25;3.85;;;;;;;;;;5031366;28;20021;-65
2021/04/08 12:33:16;;;;;;;11.57;4.00;;;;;;;;;;5034148;28;20076;-65
2021/04/08 12:35:41;;;;;;;11.57;3.92;;;;;;;;;;5027341;28;20367;-66
2021/04/08 12:38:07;;;;;;;11.00;3.05;;;;;;;;;;5031263;28;20117;-65
2021/04/08 12:40:32;;;;;;;8.80;3.17;;;;;;;;;;5030855;28;20565;-66
2021/04/08 12:42:57;;;;;;;15.13;3.65;;;;;;;;;;5030752;28;20112;-66
2021/04/08 12:45:22;;;;;;;8.80;3.85;;;;;;;;;;5031287;28;20021;-65
2021/04/08 12:47:47;;;;;;;8.98;3.40;;;;;;;;;;5031006;28;21785;-65
2021/04/08 12:50:13;;;;;;;13.07;4.10;;;;;;;;;;5030839;28;20096;-65
2021/04/08 12:52:38;;;;;;;7.32;3.78;;;;;;;;;;5032276;28;20268;-65
2021/04/08 12:55:04;;;;;;;8.73;5.30;;;;;;;;;;5027098;28;20033;-65
2021/04/08 12:57:29;;;;;;;6.97;4.07;;;;;;;;;;5031000;28;20662;-66
2021/04/08 12:59:54;;;;;;;8.38;3.90;;;;;;;;;;5030251;28;20037;-65
2021/04/08 13:02:19;;;;;;;8.32;3.97;;;;;;;;;;5030694;28;20022;-66
2021/04/08 13:04:44;;;;;;;10.87;4.87;;;;;;;;;;5030644;28;20018;-66
2021/04/08 13:07:09;;;;;;;6.10;3.47;;;;;;;;;;5030335;28;20276;-65
2021/04/08 13:09:35;;;;;;;17.87;5.10;;;;;;;;;;5030702;28;20256;-65
2021/04/08 13:12:00;;;;;;;11.33;3.23;;;;;;;;;;5030514;28;20323;-65
2021/04/08 13:14:25;;;;;;;7.05;2.70;;;;;;;;;;5030286;28;20321;-65
2021/04/08 13:16:50;;;;;;;14.63;4.72;;;;;;;;;;5031002;28;20021;-66
2021/04/08 13:19:15;;;;;;;7.30;3.75;;;;;;;;;;5030015;28;20466;-66
2021/04/08 13:21:41;;;;;;;8.02;3.08;;;;;;;;;;5030927;28;20056;-66
2021/04/08 13:24:06;;;;;;;20.97;4.70;;;;;;;;;;5031201;28;20069;-65
2021/04/08 13:26:31;;;;;;;11.30;4.07;;;;;;;;;;5028673;28;20307;-66
2021/04/08 13:28:57;;;;;;;8.73;4.68;;;;;;;;;;5029907;28;20031;-67
2021/04/08 13:31:22;;;;;;;12.38;4.18;;;;;;;;;;5030234;28;20032;-65
2021/04/08 13:33:47;;;;;;;8.52;4.40;;;;;;;;;;5030095;28;20116;-65
2021/04/08 13:36:12;;;;;;;9.57;4.73;;;;;;;;;;5030043;28;20067;-65
2021/04/08 13:38:37;;;;;;;8.80;4.67;;;;;;;;;;5029698;28;20636;-65
2021/04/08 13:41:02;;;;;;;11.02;3.67;;;;;;;;;;5029898;28;20280;-65
2021/04/08 13:43:28;;;;;;;9.43;4.40;;;;;;;;;;5030200;28;20057;-66
2021/04/08 13:45:53;;;;;;;10.77;3.28;;;;;;;;;;5029991;28;20083;-65
2021/04/08 13:48:18;;;;;;;7.57;5.15;;;;;;;;;;5029891;28;20474;-65
2021/04/08 13:50:43;;;;;;;11.77;4.63;;;;;;;;;;5030210;28;20013;-66
2021/04/08 13:53:08;;;;;;;10.32;4.88;;;;;;;;;;5030255;28;20529;-65
2021/04/08 13:55:34;;;;;;;11.38;4.40;;;;;;;;;;5029094;28;20494;-65
2021/04/08 13:57:59;;;;;;;8.60;3.10;;;;;;;;;;5030178;28;20025;-65
2021/04/08 14:00:24;;;;;;;8.30;5.15;;;;;;;;;;5029978;28;20025;-65
2021/04/08 14:02:50;;;;;;;8.95;3.67;;;;;;;;;;5030214;28;20029;-65
2021/04/08 14:05:15;;;;;;;11.82;4.70;;;;;;;;;;5030052;28;20052;-66
2021/04/08 14:07:41;;;;;;;12.45;5.50;;;;;;;;;;5029458;28;20801;-67
2021/04/08 14:10:08;;;;;;;14.95;4.43;;;;;;;;;;5029544;28;20071;-66
2021/04/08 14:12:33;;;;;;;21.15;5.00;;;;;;;;;;5030149;28;20104;-65
2021/04/08 14:14:58;;;;;;;13.07;4.65;;;;;;;;;;5029480;28;20104;-67
2021/04/08 14:17:23;;;;;;;7.50;4.05;;;;;;;;;;5028210;28;20035;-63
2021/04/08 14:19:49;;;;;;;7.10;3.72;;;;;;;;;;5029825;28;20112;-65
2021/04/08 14:22:14;;;;;;;5.40;2.63;;;;;;;;;;5029582;28;20029;-67
2021/04/08 14:24:39;;;;;;;11.80;4.40;;;;;;;;;;5029203;28;20014;-64
2021/04/08 14:27:04;;;;;;;8.73;4.32;;;;;;;;;;5030046;28;20033;-66
2021/04/08 14:29:30;;;;;;;9.57;4.32;;;;;;;;;;5030407;28;20022;-65
2021/04/08 14:31:55;;;;;;;11.10;4.03;;;;;;;;;;5030026;28;20432;-68
2021/04/08 14:34:21;;;;;;;7.40;3.70;;;;;;;;;;5029418;28;20033;-65